Richard Gonsoulin II — WDD8676 — position and weather

sailwx.info

Track history (hours):
 
Tides and Currents Weather Stations Pressure Air Temp Water Temp Dewpoint Dewpoint Depression Visibility Wind Speed Wind Dir Waves Ship Positions

Richard Gonsoulin II

Owner: LeBeouf Bros. Towing, LLC, Houma, LA. More information available from US FCC via Universal Licensing System and Coast Guard Vessel Documentation Center.

Last reported at 2018-Feb-16 22:19 UTC. Time now 2018-Feb-24 15:36 UTC.
Position N 29°34' W 090°29'.

Length 22 m; draft 3 m.

Type: Tug. MMSI: 367301310.

Date/timePositionNaut miles runAvg speedWind from/ knotsBaromVisibWave heightAir tempDewpointWater temp
2018-Feb-16 22:19N 29°34' W 090°29'2 5.3
2018-Feb-16 22:00N 29°34' W 090°31'3 5.1
2018-Feb-16 21:29N 29°34' W 090°34'2 4.3
2018-Feb-16 21:00N 29°35' W 090°37'2 4.9
2018-Feb-16 20:30N 29°36' W 090°39'2 3.5
2018-Feb-16 20:00N 29°36' W 090°41'1 2.8
2018-Feb-16 19:30N 29°36' W 090°43'2 3.8
2018-Feb-16 19:00N 29°35' W 090°43'2 3.1
2018-Feb-16 18:30N 29°34' W 090°45'3 4.9
2018-Feb-16 18:00N 29°32' W 090°47'3 6.1
2018-Feb-16 17:30N 29°32' W 090°50'65 2.5
2018-Feb-15 15:07N 29°49' W 092°02'0 3.8
2018-Feb-15 15:00N 29°49' W 092°03'1 2.9
2018-Feb-15 14:30N 29°48' W 092°04'0 0.4
2018-Feb-15 14:00N 29°48' W 092°05'0 0.1
2018-Feb-15 13:30N 29°48' W 092°05'0 0.1
2018-Feb-15 13:00N 29°48' W 092°05'0 0.0
2018-Feb-15 12:31N 29°48' W 092°05'0 0.0
2018-Feb-15 12:01N 29°48' W 092°05'0 0.0
2018-Feb-15 11:31N 29°48' W 092°05'0 0.0
2018-Feb-15 11:01N 29°48' W 092°05'0 0.0
2018-Feb-15 10:30N 29°48' W 092°05'0 0.0
2018-Feb-15 10:00N 29°48' W 092°05'0 0.0
2018-Feb-15 09:30N 29°48' W 092°05'0 0.0
2018-Feb-15 09:01N 29°48' W 092°05'0 0.0
2018-Feb-15 08:30N 29°48' W 092°05'0 0.0
2018-Feb-15 08:00N 29°48' W 092°05'0 0.0
2018-Feb-15 07:30N 29°48' W 092°05'0 0.0
2018-Feb-15 07:00N 29°48' W 092°05'0 0.0
2018-Feb-15 06:30N 29°48' W 092°05'0 0.0
2018-Feb-15 06:00N 29°48' W 092°05'0 0.0
2018-Feb-15 05:30N 29°48' W 092°05'0 0.0
2018-Feb-15 05:00N 29°48' W 092°05'0 0.0
2018-Feb-15 04:30N 29°48' W 092°05'0 0.0
2018-Feb-15 04:01N 29°48' W 092°05'0 0.0
2018-Feb-15 03:30N 29°48' W 092°05'0 1.0
2018-Feb-15 03:00N 29°48' W 092°05'2 4.0
2018-Feb-15 02:31N 29°47' W 092°07'1 1.3
2018-Feb-15 01:59N 29°47' W 092°08'0 0.4
2018-Feb-15 01:30N 29°47' W 092°08'2 4.6
2018-Feb-15 01:00N 29°47' W 092°11'2 4.2
2018-Feb-15 00:31N 29°47' W 092°13'3 5.4
2018-Feb-15 00:00N 29°48' W 092°16'3 5.1
2018-Feb-14 23:31N 29°50' W 092°18'43 2.6
2018-Feb-14 06:54N 29°56' W 093°07'2 4.4
2018-Feb-14 06:26N 29°56' W 093°10'2 4.7
2018-Feb-14 06:00N 29°58' W 093°11'2 4.7
2018-Feb-14 05:31N 29°59' W 093°13'2 4.2
2018-Feb-14 05:00N 30°01' W 093°14'2 4.3
2018-Feb-14 04:30N 30°03' W 093°16'2 4.4
2018-Feb-14 04:00N 30°05' W 093°17'1 1.7
2018-Feb-14 03:30N 30°05' W 093°18'1 1.8
2018-Feb-14 03:00N 30°06' W 093°18'0 0.0
2018-Feb-14 02:30N 30°06' W 093°18'1 2.0
2018-Feb-14 02:01N 30°06' W 093°19'2 4.3
2018-Feb-14 01:31N 30°04' W 093°21'2 3.3
2018-Feb-14 01:01N 30°04' W 093°23'2 4.4
2018-Feb-14 00:30N 30°04' W 093°25'2 4.4
2018-Feb-14 00:01N 30°04' W 093°28'2 4.6
2018-Feb-13 23:30N 30°04' W 093°30'3 4.6
2018-Feb-13 22:47N 30°04' W 093°34'2 4.8
2018-Feb-13 22:26N 30°04' W 093°36'2 5.2
2018-Feb-13 22:00N 30°04' W 093°39'3 5.3
2018-Feb-13 21:30N 30°03' W 093°42'3 5.0
2018-Feb-13 20:59N 30°02' W 093°44'2 5.1
2018-Feb-13 20:30N 30°00' W 093°46'3 5.5
2018-Feb-13 20:00N 29°59' W 093°49'2 4.6
2018-Feb-13 19:30N 29°58' W 093°51'3 6.4
2018-Feb-13 19:01N 29°59' W 093°55'3 5.9
2018-Feb-13 18:31N 30°01' W 093°58'1 2.1
2018-Feb-13 18:01N 30°01' W 093°59'0 0.1
2018-Feb-13 17:30N 30°01' W 093°59'0 0.0
2018-Feb-13 16:58N 30°01' W 093°59'0 0.0
2018-Feb-13 16:30N 30°01' W 093°59'0 0.0
2018-Feb-13 15:59N 30°01' W 093°59'0 0.0
2018-Feb-13 15:23N 30°01' W 093°59'0 0.0
2018-Feb-13 14:58N 30°01' W 093°59'0 0.0
2018-Feb-13 14:29N 30°01' W 093°59'0 0.0
2018-Feb-13 14:00N 30°01' W 093°59'0 0.0
2018-Feb-13 13:29N 30°01' W 093°59'0 0.0
2018-Feb-13 12:57N 30°01' W 093°59'0 0.0
2018-Feb-13 12:26N 30°01' W 093°59'0 0.0
2018-Feb-13 11:58N 30°01' W 093°59'0 0.0
2018-Feb-13 11:30N 30°01' W 093°59'0 0.0
2018-Feb-13 10:58N 30°01' W 093°59'0 0.0
2018-Feb-13 10:25N 30°01' W 093°59'0 0.0
2018-Feb-13 09:59N 30°01' W 093°59'0 0.0
2018-Feb-13 09:27N 30°01' W 093°59'0 0.0
2018-Feb-13 08:59N 30°01' W 093°59'0 0.0
2018-Feb-13 08:27N 30°01' W 093°59'0 0.0
2018-Feb-13 07:58N 30°01' W 093°59'0 0.0
2018-Feb-13 07:29N 30°01' W 093°59'0 0.0
2018-Feb-13 07:00N 30°01' W 093°59'0 0.0
2018-Feb-13 06:30N 30°01' W 093°59'0 0.0
2018-Feb-13 06:00N 30°01' W 093°59'0 0.0
2018-Feb-13 05:30N 30°01' W 093°59'0 0.0
2018-Feb-13 05:00N 30°01' W 093°59'0 0.0
2018-Feb-13 04:30N 30°01' W 093°59'0 0.0
2018-Feb-13 04:00N 30°01' W 093°59'0 0.0
2018-Feb-13 03:30N 30°01' W 093°59'0 0.0
2018-Feb-13 03:00N 30°01' W 093°59'0 0.0
2018-Feb-13 02:30N 30°01' W 093°59'0 0.0
2018-Feb-13 02:00N 30°01' W 093°59'0 0.0
2018-Feb-13 01:30N 30°01' W 093°59'0 0.0
2018-Feb-13 01:00N 30°01' W 093°59'0 0.0
2018-Feb-13 00:30N 30°01' W 093°59'0 0.0
2018-Feb-13 00:00N 30°01' W 093°59'0 1.0
2018-Feb-12 23:30N 30°01' W 093°60'0 0.0
2018-Feb-12 23:00N 30°01' W 093°60'1 1.3
2018-Feb-12 22:30N 30°01' W 093°59'3 6.0
2018-Feb-12 22:00N 29°59' W 093°56'4 7.5
2018-Feb-12 21:30N 29°59' W 093°52'3 5.3
2018-Feb-12 21:00N 29°59' W 093°49'2 3.9
2018-Feb-12 20:30N 29°60' W 093°46'0 0.1
2018-Feb-12 20:00N 29°60' W 093°47'0 0.7
2018-Feb-12 19:30N 29°60' W 093°47'0 0.0
2018-Feb-12 19:00N 29°60' W 093°47'0 0.0
2018-Feb-12 18:30N 29°60' W 093°47'0 0.0
2018-Feb-12 18:00N 29°60' W 093°47'0 0.0
2018-Feb-12 17:30N 29°60' W 093°47'0 0.0
2018-Feb-12 17:00N 29°60' W 093°47'0 0.0
2018-Feb-12 16:30N 29°60' W 093°47'0 0.0
2018-Feb-12 16:00N 29°60' W 093°47'0 0.0
2018-Feb-12 15:30N 29°60' W 093°47'0 0.0
2018-Feb-12 15:00N 29°60' W 093°47'0 0.5
2018-Feb-12 14:30N 29°60' W 093°47'2 3.7
2018-Feb-12 14:00N 30°01' W 093°46'3 3.5
2018-Feb-12 13:03N 30°03' W 093°43'0 0.0
2018-Feb-12 12:51N 30°03' W 093°43'0 0.0
2018-Feb-12 12:30N 30°03' W 093°43'0 0.0
2018-Feb-12 11:57N 30°03' W 093°43'0 0.0
2018-Feb-12 11:30N 30°03' W 093°43'0 0.0
2018-Feb-12 10:57N 30°03' W 093°43'0 0.0
2018-Feb-12 10:02N 30°03' W 093°43'0 0.0
2018-Feb-12 09:59N 30°03' W 093°43'0 0.0
2018-Feb-12 09:10N 30°03' W 093°43'0 0.2
2018-Feb-12 08:52N 30°03' W 093°43'0 0.2
2018-Feb-12 08:30N 30°03' W 093°43'0 0.0
2018-Feb-12 08:00N 30°03' W 093°43'0 0.0
2018-Feb-12 07:12N 30°03' W 093°43'0 0.0
2018-Feb-12 06:54N 30°03' W 093°43'0 0.0
2018-Feb-12 06:12N 30°03' W 093°43'0 0.0
2018-Feb-12 05:43N 30°03' W 093°43'0 0.0
2018-Feb-12 05:25N 30°03' W 093°43'0 0.0
2018-Feb-12 05:00N 30°03' W 093°43'0 0.0
2018-Feb-12 04:28N 30°03' W 093°43'0 0.0
2018-Feb-12 03:58N 30°03' W 093°43'0 0.0
2018-Feb-12 03:29N 30°03' W 093°43'0 0.0
2018-Feb-12 02:54N 30°03' W 093°43'0 0.0
2018-Feb-12 02:28N 30°03' W 093°43'0 0.0
2018-Feb-12 02:00N 30°03' W 093°43'0 0.0
2018-Feb-12 01:26N 30°03' W 093°43'0 0.0
2018-Feb-12 00:54N 30°03' W 093°43'0 0.0
2018-Feb-12 00:24N 30°03' W 093°43'0 0.0
2018-Feb-11 23:51N 30°03' W 093°43'0 0.0
2018-Feb-11 23:15N 30°03' W 093°43'0 0.0
2018-Feb-11 22:56N 30°03' W 093°43'0 0.0
2018-Feb-11 22:17N 30°03' W 093°43'0 0.0
2018-Feb-11 21:37N 30°03' W 093°43'0 0.0
2018-Feb-11 20:02N 30°03' W 093°43'0 0.0
2018-Feb-11 19:45N 30°03' W 093°43'0 0.0
2018-Feb-11 19:27N 30°03' W 093°43'0 0.0
2018-Feb-11 18:49N 30°03' W 093°43'0 0.0
2018-Feb-11 18:04N 30°03' W 093°43'0 0.0
2018-Feb-11 17:55N 30°03' W 093°43'0 0.0
2018-Feb-11 17:28N 30°03' W 093°43'0 0.0
2018-Feb-11 16:55N 30°03' W 093°43'0 0.0
2018-Feb-11 16:30N 30°03' W 093°43'0 0.0
2018-Feb-11 14:43N 30°03' W 093°43'0 0.0
2018-Feb-11 14:19N 30°03' W 093°43'0 0.0
2018-Feb-11 13:54N 30°03' W 093°43'0 0.0
2018-Feb-11 13:13N 30°03' W 093°43'0 0.0
2018-Feb-11 12:59N 30°03' W 093°43'0 0.0
2018-Feb-11 12:28N 30°03' W 093°43'0 0.0
2018-Feb-11 11:59N 30°03' W 093°43'0 0.0
2018-Feb-11 11:23N 30°03' W 093°43'0 0.0
2018-Feb-11 11:00N 30°03' W 093°43'1 1.6
2018-Feb-11 10:30N 30°03' W 093°42'9 7.1
2018-Feb-11 09:13N 30°04' W 093°32'1 7.1
2018-Feb-11 09:01N 30°04' W 093°30'3 6.8
2018-Feb-11 08:30N 30°04' W 093°26'1 2.5
2018-Feb-11 08:01N 30°04' W 093°24'0 0.1
2018-Feb-11 07:30N 30°04' W 093°24'2 4.0
2018-Feb-11 07:00N 30°04' W 093°22'2 4.7
2018-Feb-11 06:30N 30°05' W 093°20'2 3.3
2018-Feb-11 06:00N 30°06' W 093°19'0 0.0
2018-Feb-11 05:30N 30°06' W 093°19'0 0.0
2018-Feb-11 05:00N 30°06' W 093°19'0 0.0
2018-Feb-11 04:30N 30°06' W 093°19'0 0.0
2018-Feb-11 04:00N 30°06' W 093°19'2 4.4
2018-Feb-11 03:30N 30°05' W 093°20'0 0.8
2018-Feb-11 03:00N 30°04' W 093°21'0 0.1
2018-Feb-11 02:31N 30°04' W 093°21'2 3.3
2018-Feb-11 02:00N 30°04' W 093°22'3 6.4
2018-Feb-11 01:30N 30°04' W 093°26'3 6.6
2018-Feb-11 01:00N 30°04' W 093°30'6 6.7
2018-Feb-11 00:09N 30°03' W 093°37'2 7.0
2018-Feb-10 23:53N 30°04' W 093°39'3 7.4
2018-Feb-10 23:30N 30°03' W 093°42'3 6.9
2018-Feb-10 23:00N 30°01' W 093°45'4 7.6
2018-Feb-10 22:30N 29°59' W 093°48'3 6.9
2018-Feb-10 22:00N 29°57' W 093°52'0 0.6
2018-Feb-10 21:30N 29°57' W 093°52'2 3.2
2018-Feb-10 21:00N 29°56' W 093°52'4 8.1
2018-Feb-10 20:30N 29°53' W 093°55'3 6.9
2018-Feb-10 20:00N 29°50' W 093°57'1 2.2
2018-Feb-10 19:26N 29°49' W 093°59'0 0.0
2018-Feb-10 19:00N 29°49' W 093°59'0 0.0
2018-Feb-10 18:28N 29°49' W 093°59'0 0.0
2018-Feb-10 17:59N 29°49' W 093°59'0 0.0
2018-Feb-10 17:30N 29°49' W 093°59'0 0.0
2018-Feb-10 16:59N 29°49' W 093°59'0 0.0
2018-Feb-10 16:27N 29°49' W 093°59'0 0.0
2018-Feb-10 15:56N 29°49' W 093°59'0 0.0
2018-Feb-10 15:23N 29°49' W 093°59'0 0.0
2018-Feb-10 14:58N 29°49' W 093°59'0 0.0
2018-Feb-10 14:25N 29°49' W 093°59'0 0.0
2018-Feb-10 13:58N 29°49' W 093°59'0 0.0
2018-Feb-10 13:25N 29°49' W 093°59'0 0.0
2018-Feb-10 13:00N 29°49' W 093°59'0 0.0
2018-Feb-10 12:27N 29°49' W 093°59'0 0.0
2018-Feb-10 12:00N 29°49' W 093°59'0 0.0
2018-Feb-10 11:28N 29°49' W 093°59'0 0.0
2018-Feb-10 10:58N 29°49' W 093°59'0 0.0
2018-Feb-10 10:30N 29°49' W 093°59'0 0.0
2018-Feb-10 09:50N 29°49' W 093°59'0 0.0
2018-Feb-10 09:29N 29°49' W 093°59'0 0.0
2018-Feb-10 08:59N 29°49' W 093°59'0 0.0
2018-Feb-10 08:25N 29°49' W 093°59'0 0.0
2018-Feb-10 07:59N 29°49' W 093°59'0 0.0
2018-Feb-10 07:30N 29°49' W 093°59'0 0.0
2018-Feb-10 06:59N 29°49' W 093°59'0 0.0
2018-Feb-10 06:30N 29°49' W 093°59'0 0.0
2018-Feb-10 05:57N 29°49' W 093°59'0 0.0
2018-Feb-10 05:30N 29°49' W 093°59'0 0.0
2018-Feb-10 04:59N 29°49' W 093°59'0 0.0
2018-Feb-10 04:29N 29°49' W 093°59'0 0.0
2018-Feb-10 03:58N 29°49' W 093°59'0 0.0
2018-Feb-10 03:28N 29°49' W 093°59'0 0.0
2018-Feb-10 02:59N 29°49' W 093°59'0 0.0
2018-Feb-10 02:29N 29°49' W 093°59'0 0.0
2018-Feb-10 01:59N 29°49' W 093°59'0 0.0
2018-Feb-10 01:29N 29°49' W 093°59'0 0.0
2018-Feb-10 00:58N 29°49' W 093°59'0 0.0
2018-Feb-10 00:28N 29°49' W 093°59'0 0.0
2018-Feb-10 00:00N 29°49' W 093°59'0 0.0
2018-Feb-09 23:30N 29°49' W 093°59'0 0.0
2018-Feb-09 22:57N 29°49' W 093°59'0 0.0
2018-Feb-09 22:43N 29°49' W 093°59'0 0.0
2018-Feb-09 11:00N 29°49' W 093°59'0 0.1
2018-Feb-09 10:31N 29°49' W 093°59'10 5.0
2018-Feb-09 08:30N 29°43' W 094°08'6 4.1
2018-Feb-09 07:00N 29°40' W 094°14'2 4.7
2018-Feb-09 06:30N 29°39' W 094°16'5 5.4
2018-Feb-09 05:30N 29°36' W 094°22'29 3.4
2018-Feb-08 21:00N 29°33' W 094°54'6 6.1
2018-Feb-08 20:00N 29°38' W 094°58'1 0.4
2018-Feb-08 17:00N 29°37' W 094°57'7 0.4
2018-Feb-08 00:42N 29°42' W 095°03'0 0.0
2018-Feb-08 00:30N 29°42' W 095°03'0 0.0
2018-Feb-08 00:00N 29°42' W 095°03'0 0.0
2018-Feb-07 23:30N 29°42' W 095°03'0 0.0
2018-Feb-07 22:59N 29°42' W 095°03'0 0.0
2018-Feb-07 22:30N 29°42' W 095°03'0 0.0
2018-Feb-07 21:59N 29°42' W 095°03'0 0.0
2018-Feb-07 21:26N 29°42' W 095°03'0 0.0
2018-Feb-07 08:33N 29°42' W 095°03'0 1.5
2018-Feb-07 08:29N 29°42' W 095°03'1 1.4
2018-Feb-07 07:56N 29°42' W 095°02'1 0.1
2018-Feb-06 23:15N 29°42' W 095°03'0 0.2
2018-Feb-06 22:57N 29°42' W 095°03'0 0.0
2018-Feb-06 22:26N 29°42' W 095°03'  
Track history (hours):
 
Tides and Currents Weather Stations Pressure Air Temp Water Temp Dewpoint Dewpoint Depression Visibility Wind Speed Wind Dir Waves Ship Positions

Richard Gonsoulin II

Owner: LeBeouf Bros. Towing, LLC, Houma, LA. More information available from US FCC via Universal Licensing System and Coast Guard Vessel Documentation Center.

Last reported at 2018-Feb-16 22:19 UTC. Time now 2018-Feb-24 15:36 UTC.
Position N 29°34' W 090°29'.

Length 22 m; draft 3 m.

Type: Tug. MMSI: 367301310.

Date/timePositionNaut miles runAvg speedWind from/ knotsBaromVisibWave heightAir tempDewpointWater temp
2018-Feb-16 22:19N 29°34' W 090°29'2 5.3
2018-Feb-16 22:00N 29°34' W 090°31'3 5.1
2018-Feb-16 21:29N 29°34' W 090°34'2 4.3
2018-Feb-16 21:00N 29°35' W 090°37'2 4.9
2018-Feb-16 20:30N 29°36' W 090°39'2 3.5
2018-Feb-16 20:00N 29°36' W 090°41'1 2.8
2018-Feb-16 19:30N 29°36' W 090°43'2 3.8
2018-Feb-16 19:00N 29°35' W 090°43'2 3.1
2018-Feb-16 18:30N 29°34' W 090°45'3 4.9
2018-Feb-16 18:00N 29°32' W 090°47'3 6.1
2018-Feb-16 17:30N 29°32' W 090°50'65 2.5
2018-Feb-15 15:07N 29°49' W 092°02'0 3.8
2018-Feb-15 15:00N 29°49' W 092°03'1 2.9
2018-Feb-15 14:30N 29°48' W 092°04'0 0.4
2018-Feb-15 14:00N 29°48' W 092°05'0 0.1
2018-Feb-15 13:30N 29°48' W 092°05'0 0.1
2018-Feb-15 13:00N 29°48' W 092°05'0 0.0
2018-Feb-15 12:31N 29°48' W 092°05'0 0.0
2018-Feb-15 12:01N 29°48' W 092°05'0 0.0
2018-Feb-15 11:31N 29°48' W 092°05'0 0.0
2018-Feb-15 11:01N 29°48' W 092°05'0 0.0
2018-Feb-15 10:30N 29°48' W 092°05'0 0.0
2018-Feb-15 10:00N 29°48' W 092°05'0 0.0
2018-Feb-15 09:30N 29°48' W 092°05'0 0.0
2018-Feb-15 09:01N 29°48' W 092°05'0 0.0
2018-Feb-15 08:30N 29°48' W 092°05'0 0.0
2018-Feb-15 08:00N 29°48' W 092°05'0 0.0
2018-Feb-15 07:30N 29°48' W 092°05'0 0.0
2018-Feb-15 07:00N 29°48' W 092°05'0 0.0
2018-Feb-15 06:30N 29°48' W 092°05'0 0.0
2018-Feb-15 06:00N 29°48' W 092°05'0 0.0
2018-Feb-15 05:30N 29°48' W 092°05'0 0.0
2018-Feb-15 05:00N 29°48' W 092°05'0 0.0
2018-Feb-15 04:30N 29°48' W 092°05'0 0.0
2018-Feb-15 04:01N 29°48' W 092°05'0 0.0
2018-Feb-15 03:30N 29°48' W 092°05'0 1.0
2018-Feb-15 03:00N 29°48' W 092°05'2 4.0
2018-Feb-15 02:31N 29°47' W 092°07'1 1.3
2018-Feb-15 01:59N 29°47' W 092°08'0 0.4
2018-Feb-15 01:30N 29°47' W 092°08'2 4.6
2018-Feb-15 01:00N 29°47' W 092°11'2 4.2
2018-Feb-15 00:31N 29°47' W 092°13'3 5.4
2018-Feb-15 00:00N 29°48' W 092°16'3 5.1
2018-Feb-14 23:31N 29°50' W 092°18'43 2.6
2018-Feb-14 06:54N 29°56' W 093°07'2 4.4
2018-Feb-14 06:26N 29°56' W 093°10'2 4.7
2018-Feb-14 06:00N 29°58' W 093°11'2 4.7
2018-Feb-14 05:31N 29°59' W 093°13'2 4.2
2018-Feb-14 05:00N 30°01' W 093°14'2 4.3
2018-Feb-14 04:30N 30°03' W 093°16'2 4.4
2018-Feb-14 04:00N 30°05' W 093°17'1 1.7
2018-Feb-14 03:30N 30°05' W 093°18'1 1.8
2018-Feb-14 03:00N 30°06' W 093°18'0 0.0
2018-Feb-14 02:30N 30°06' W 093°18'1 2.0
2018-Feb-14 02:01N 30°06' W 093°19'2 4.3
2018-Feb-14 01:31N 30°04' W 093°21'2 3.3
2018-Feb-14 01:01N 30°04' W 093°23'2 4.4
2018-Feb-14 00:30N 30°04' W 093°25'2 4.4
2018-Feb-14 00:01N 30°04' W 093°28'2 4.6
2018-Feb-13 23:30N 30°04' W 093°30'3 4.6
2018-Feb-13 22:47N 30°04' W 093°34'2 4.8
2018-Feb-13 22:26N 30°04' W 093°36'2 5.2
2018-Feb-13 22:00N 30°04' W 093°39'3 5.3
2018-Feb-13 21:30N 30°03' W 093°42'3 5.0
2018-Feb-13 20:59N 30°02' W 093°44'2 5.1
2018-Feb-13 20:30N 30°00' W 093°46'3 5.5
2018-Feb-13 20:00N 29°59' W 093°49'2 4.6
2018-Feb-13 19:30N 29°58' W 093°51'3 6.4
2018-Feb-13 19:01N 29°59' W 093°55'3 5.9
2018-Feb-13 18:31N 30°01' W 093°58'1 2.1
2018-Feb-13 18:01N 30°01' W 093°59'0 0.1
2018-Feb-13 17:30N 30°01' W 093°59'0 0.0
2018-Feb-13 16:58N 30°01' W 093°59'0 0.0
2018-Feb-13 16:30N 30°01' W 093°59'0 0.0
2018-Feb-13 15:59N 30°01' W 093°59'0 0.0
2018-Feb-13 15:23N 30°01' W 093°59'0 0.0
2018-Feb-13 14:58N 30°01' W 093°59'0 0.0
2018-Feb-13 14:29N 30°01' W 093°59'0 0.0
2018-Feb-13 14:00N 30°01' W 093°59'0 0.0
2018-Feb-13 13:29N 30°01' W 093°59'0 0.0
2018-Feb-13 12:57N 30°01' W 093°59'0 0.0
2018-Feb-13 12:26N 30°01' W 093°59'0 0.0
2018-Feb-13 11:58N 30°01' W 093°59'0 0.0
2018-Feb-13 11:30N 30°01' W 093°59'0 0.0
2018-Feb-13 10:58N 30°01' W 093°59'0 0.0
2018-Feb-13 10:25N 30°01' W 093°59'0 0.0
2018-Feb-13 09:59N 30°01' W 093°59'0 0.0
2018-Feb-13 09:27N 30°01' W 093°59'0 0.0
2018-Feb-13 08:59N 30°01' W 093°59'0 0.0
2018-Feb-13 08:27N 30°01' W 093°59'0 0.0
2018-Feb-13 07:58N 30°01' W 093°59'0 0.0
2018-Feb-13 07:29N 30°01' W 093°59'0 0.0
2018-Feb-13 07:00N 30°01' W 093°59'0 0.0
2018-Feb-13 06:30N 30°01' W 093°59'0 0.0
2018-Feb-13 06:00N 30°01' W 093°59'0 0.0
2018-Feb-13 05:30N 30°01' W 093°59'0 0.0
2018-Feb-13 05:00N 30°01' W 093°59'0 0.0
2018-Feb-13 04:30N 30°01' W 093°59'0 0.0
2018-Feb-13 04:00N 30°01' W 093°59'0 0.0
2018-Feb-13 03:30N 30°01' W 093°59'0 0.0
2018-Feb-13 03:00N 30°01' W 093°59'0 0.0
2018-Feb-13 02:30N 30°01' W 093°59'0 0.0
2018-Feb-13 02:00N 30°01' W 093°59'0 0.0
2018-Feb-13 01:30N 30°01' W 093°59'0 0.0
2018-Feb-13 01:00N 30°01' W 093°59'0 0.0
2018-Feb-13 00:30N 30°01' W 093°59'0 0.0
2018-Feb-13 00:00N 30°01' W 093°59'0 1.0
2018-Feb-12 23:30N 30°01' W 093°60'0 0.0
2018-Feb-12 23:00N 30°01' W 093°60'1 1.3
2018-Feb-12 22:30N 30°01' W 093°59'3 6.0
2018-Feb-12 22:00N 29°59' W 093°56'4 7.5
2018-Feb-12 21:30N 29°59' W 093°52'3 5.3
2018-Feb-12 21:00N 29°59' W 093°49'2 3.9
2018-Feb-12 20:30N 29°60' W 093°46'0 0.1
2018-Feb-12 20:00N 29°60' W 093°47'0 0.7
2018-Feb-12 19:30N 29°60' W 093°47'0 0.0
2018-Feb-12 19:00N 29°60' W 093°47'0 0.0
2018-Feb-12 18:30N 29°60' W 093°47'0 0.0
2018-Feb-12 18:00N 29°60' W 093°47'0 0.0
2018-Feb-12 17:30N 29°60' W 093°47'0 0.0
2018-Feb-12 17:00N 29°60' W 093°47'0 0.0
2018-Feb-12 16:30N 29°60' W 093°47'0 0.0
2018-Feb-12 16:00N 29°60' W 093°47'0 0.0
2018-Feb-12 15:30N 29°60' W 093°47'0 0.0
2018-Feb-12 15:00N 29°60' W 093°47'0 0.5
2018-Feb-12 14:30N 29°60' W 093°47'2 3.7
2018-Feb-12 14:00N 30°01' W 093°46'3 3.5
2018-Feb-12 13:03N 30°03' W 093°43'0 0.0
2018-Feb-12 12:51N 30°03' W 093°43'0 0.0
2018-Feb-12 12:30N 30°03' W 093°43'0 0.0
2018-Feb-12 11:57N 30°03' W 093°43'0 0.0
2018-Feb-12 11:30N 30°03' W 093°43'0 0.0
2018-Feb-12 10:57N 30°03' W 093°43'0 0.0
2018-Feb-12 10:02N 30°03' W 093°43'0 0.0
2018-Feb-12 09:59N 30°03' W 093°43'0 0.0
2018-Feb-12 09:10N 30°03' W 093°43'0 0.2
2018-Feb-12 08:52N 30°03' W 093°43'0 0.2
2018-Feb-12 08:30N 30°03' W 093°43'0 0.0
2018-Feb-12 08:00N 30°03' W 093°43'0 0.0
2018-Feb-12 07:12N 30°03' W 093°43'0 0.0
2018-Feb-12 06:54N 30°03' W 093°43'0 0.0
2018-Feb-12 06:12N 30°03' W 093°43'0 0.0
2018-Feb-12 05:43N 30°03' W 093°43'0 0.0
2018-Feb-12 05:25N 30°03' W 093°43'0 0.0
2018-Feb-12 05:00N 30°03' W 093°43'0 0.0
2018-Feb-12 04:28N 30°03' W 093°43'0 0.0
2018-Feb-12 03:58N 30°03' W 093°43'0 0.0
2018-Feb-12 03:29N 30°03' W 093°43'0 0.0
2018-Feb-12 02:54N 30°03' W 093°43'0 0.0
2018-Feb-12 02:28N 30°03' W 093°43'0 0.0
2018-Feb-12 02:00N 30°03' W 093°43'0 0.0
2018-Feb-12 01:26N 30°03' W 093°43'0 0.0
2018-Feb-12 00:54N 30°03' W 093°43'0 0.0
2018-Feb-12 00:24N 30°03' W 093°43'0 0.0
2018-Feb-11 23:51N 30°03' W 093°43'0 0.0
2018-Feb-11 23:15N 30°03' W 093°43'0 0.0
2018-Feb-11 22:56N 30°03' W 093°43'0 0.0
2018-Feb-11 22:17N 30°03' W 093°43'0 0.0
2018-Feb-11 21:37N 30°03' W 093°43'0 0.0
2018-Feb-11 20:02N 30°03' W 093°43'0 0.0
2018-Feb-11 19:45N 30°03' W 093°43'0 0.0
2018-Feb-11 19:27N 30°03' W 093°43'0 0.0
2018-Feb-11 18:49N 30°03' W 093°43'0 0.0
2018-Feb-11 18:04N 30°03' W 093°43'0 0.0
2018-Feb-11 17:55N 30°03' W 093°43'0 0.0
2018-Feb-11 17:28N 30°03' W 093°43'0 0.0
2018-Feb-11 16:55N 30°03' W 093°43'0 0.0
2018-Feb-11 16:30N 30°03' W 093°43'0 0.0
2018-Feb-11 14:43N 30°03' W 093°43'0 0.0
2018-Feb-11 14:19N 30°03' W 093°43'0 0.0
2018-Feb-11 13:54N 30°03' W 093°43'0 0.0
2018-Feb-11 13:13N 30°03' W 093°43'0 0.0
2018-Feb-11 12:59N 30°03' W 093°43'0 0.0
2018-Feb-11 12:28N 30°03' W 093°43'0 0.0
2018-Feb-11 11:59N 30°03' W 093°43'0 0.0
2018-Feb-11 11:23N 30°03' W 093°43'0 0.0
2018-Feb-11 11:00N 30°03' W 093°43'1 1.6
2018-Feb-11 10:30N 30°03' W 093°42'9 7.1
2018-Feb-11 09:13N 30°04' W 093°32'1 7.1
2018-Feb-11 09:01N 30°04' W 093°30'3 6.8
2018-Feb-11 08:30N 30°04' W 093°26'1 2.5
2018-Feb-11 08:01N 30°04' W 093°24'0 0.1
2018-Feb-11 07:30N 30°04' W 093°24'2 4.0
2018-Feb-11 07:00N 30°04' W 093°22'2 4.7
2018-Feb-11 06:30N 30°05' W 093°20'2 3.3
2018-Feb-11 06:00N 30°06' W 093°19'0 0.0
2018-Feb-11 05:30N 30°06' W 093°19'0 0.0
2018-Feb-11 05:00N 30°06' W 093°19'0 0.0
2018-Feb-11 04:30N 30°06' W 093°19'0 0.0
2018-Feb-11 04:00N 30°06' W 093°19'2 4.4
2018-Feb-11 03:30N 30°05' W 093°20'0 0.8
2018-Feb-11 03:00N 30°04' W 093°21'0 0.1
2018-Feb-11 02:31N 30°04' W 093°21'2 3.3
2018-Feb-11 02:00N 30°04' W 093°22'3 6.4
2018-Feb-11 01:30N 30°04' W 093°26'3 6.6
2018-Feb-11 01:00N 30°04' W 093°30'6 6.7
2018-Feb-11 00:09N 30°03' W 093°37'2 7.0
2018-Feb-10 23:53N 30°04' W 093°39'3 7.4
2018-Feb-10 23:30N 30°03' W 093°42'3 6.9
2018-Feb-10 23:00N 30°01' W 093°45'4 7.6
2018-Feb-10 22:30N 29°59' W 093°48'3 6.9
2018-Feb-10 22:00N 29°57' W 093°52'0 0.6
2018-Feb-10 21:30N 29°57' W 093°52'2 3.2
2018-Feb-10 21:00N 29°56' W 093°52'4 8.1
2018-Feb-10 20:30N 29°53' W 093°55'3 6.9
2018-Feb-10 20:00N 29°50' W 093°57'1 2.2
2018-Feb-10 19:26N 29°49' W 093°59'0 0.0
2018-Feb-10 19:00N 29°49' W 093°59'0 0.0
2018-Feb-10 18:28N 29°49' W 093°59'0 0.0
2018-Feb-10 17:59N 29°49' W 093°59'0 0.0
2018-Feb-10 17:30N 29°49' W 093°59'0 0.0
2018-Feb-10 16:59N 29°49' W 093°59'0 0.0
2018-Feb-10 16:27N 29°49' W 093°59'0 0.0
2018-Feb-10 15:56N 29°49' W 093°59'0 0.0
2018-Feb-10 15:23N 29°49' W 093°59'0 0.0
2018-Feb-10 14:58N 29°49' W 093°59'0 0.0
2018-Feb-10 14:25N 29°49' W 093°59'0 0.0
2018-Feb-10 13:58N 29°49' W 093°59'0 0.0
2018-Feb-10 13:25N 29°49' W 093°59'0 0.0
2018-Feb-10 13:00N 29°49' W 093°59'0 0.0
2018-Feb-10 12:27N 29°49' W 093°59'0 0.0
2018-Feb-10 12:00N 29°49' W 093°59'0 0.0
2018-Feb-10 11:28N 29°49' W 093°59'0 0.0
2018-Feb-10 10:58N 29°49' W 093°59'0 0.0
2018-Feb-10 10:30N 29°49' W 093°59'0 0.0
2018-Feb-10 09:50N 29°49' W 093°59'0 0.0
2018-Feb-10 09:29N 29°49' W 093°59'0 0.0
2018-Feb-10 08:59N 29°49' W 093°59'0 0.0
2018-Feb-10 08:25N 29°49' W 093°59'0 0.0
2018-Feb-10 07:59N 29°49' W 093°59'0 0.0
2018-Feb-10 07:30N 29°49' W 093°59'0 0.0
2018-Feb-10 06:59N 29°49' W 093°59'0 0.0
2018-Feb-10 06:30N 29°49' W 093°59'0 0.0
2018-Feb-10 05:57N 29°49' W 093°59'0 0.0
2018-Feb-10 05:30N 29°49' W 093°59'0 0.0
2018-Feb-10 04:59N 29°49' W 093°59'0 0.0
2018-Feb-10 04:29N 29°49' W 093°59'0 0.0
2018-Feb-10 03:58N 29°49' W 093°59'0 0.0
2018-Feb-10 03:28N 29°49' W 093°59'0 0.0
2018-Feb-10 02:59N 29°49' W 093°59'0 0.0
2018-Feb-10 02:29N 29°49' W 093°59'0 0.0
2018-Feb-10 01:59N 29°49' W 093°59'0 0.0
2018-Feb-10 01:29N 29°49' W 093°59'0 0.0
2018-Feb-10 00:58N 29°49' W 093°59'0 0.0
2018-Feb-10 00:28N 29°49' W 093°59'0 0.0
2018-Feb-10 00:00N 29°49' W 093°59'0 0.0
2018-Feb-09 23:30N 29°49' W 093°59'0 0.0
2018-Feb-09 22:57N 29°49' W 093°59'0 0.0
2018-Feb-09 22:43N 29°49' W 093°59'0 0.0
2018-Feb-09 11:00N 29°49' W 093°59'0 0.1
2018-Feb-09 10:31N 29°49' W 093°59'10 5.0
2018-Feb-09 08:30N 29°43' W 094°08'6 4.1
2018-Feb-09 07:00N 29°40' W 094°14'2 4.7
2018-Feb-09 06:30N 29°39' W 094°16'5 5.4
2018-Feb-09 05:30N 29°36' W 094°22'29 3.4
2018-Feb-08 21:00N 29°33' W 094°54'6 6.1
2018-Feb-08 20:00N 29°38' W 094°58'1 0.4
2018-Feb-08 17:00N 29°37' W 094°57'7 0.4
2018-Feb-08 00:42N 29°42' W 095°03'0 0.0
2018-Feb-08 00:30N 29°42' W 095°03'0 0.0
2018-Feb-08 00:00N 29°42' W 095°03'0 0.0
2018-Feb-07 23:30N 29°42' W 095°03'0 0.0
2018-Feb-07 22:59N 29°42' W 095°03'0 0.0
2018-Feb-07 22:30N 29°42' W 095°03'0 0.0
2018-Feb-07 21:59N 29°42' W 095°03'0 0.0
2018-Feb-07 21:26N 29°42' W 095°03'0 0.0
2018-Feb-07 08:33N 29°42' W 095°03'0 1.5
2018-Feb-07 08:29N 29°42' W 095°03'1 1.4
2018-Feb-07 07:56N 29°42' W 095°02'1 0.1
2018-Feb-06 23:15N 29°42' W 095°03'0 0.2
2018-Feb-06 22:57N 29°42' W 095°03'0 0.0
2018-Feb-06 22:26N 29°42' W 095°03'  

Dump ship's entire track history